Time;durP1;ratioP1;P1;durP2;ratioP2;P2;SDS_P1;SDS_P2;PMS_P1;PMS_P2;Temp;Humidity;BMP_temperature;BMP_pressure;BME280_temperature;BME280_humidity;BME280_pressure;Samples;Min_cycle;Max_cycle;Signal;HPM_P1;HPM_P2
2022/12/26 00:01:59;;;;;;;55.20;41.80;;;;;;;6.34;77.78;100313.00;108414;1280;22998;-78
2022/12/26 00:04:29;;;;;;;46.10;35.00;;;;;;;6.33;77.83;100309.73;108288;1278;21962;-78
2022/12/26 00:07:18;;;;;;;56.40;40.40;;;;;;;6.34;77.87;100309.02;108246;1281;21949;-78
2022/12/26 00:09:47;;;;;;;52.80;39.30;;;;;;;6.38;77.79;100306.00;108382;1272;22035;-76
2022/12/26 00:12:16;;;;;;;52.50;36.80;;;;;;;6.38;77.72;100304.08;108316;1280;23683;-76
2022/12/26 00:14:46;;;;;;;51.40;39.20;;;;;;;6.38;77.71;100303.92;108372;1275;22428;-76
2022/12/26 00:17:15;;;;;;;55.20;40.00;;;;;;;6.37;77.75;100291.50;108607;1275;22287;-78
2022/12/26 00:19:44;;;;;;;51.10;38.10;;;;;;;6.37;77.77;100280.09;108706;1275;23009;-76
2022/12/26 00:22:14;;;;;;;56.70;37.90;;;;;;;6.37;77.86;100270.77;108666;1276;21966;-77
2022/12/26 00:24:43;;;;;;;51.90;37.50;;;;;;;6.36;77.78;100269.58;108469;1277;21945;-76
2022/12/26 00:27:13;;;;;;;50.90;36.40;;;;;;;6.37;77.83;100284.41;108697;1275;23645;-77
2022/12/26 00:29:42;;;;;;;45.40;35.40;;;;;;;6.36;77.79;100289.95;108562;1275;21975;-79
2022/12/26 00:32:11;;;;;;;46.60;37.20;;;;;;;6.38;77.93;100284.21;108620;1275;23075;-77
2022/12/26 00:34:40;;;;;;;46.50;36.50;;;;;;;6.39;78.01;100283.33;108334;1280;22381;-78
2022/12/26 00:37:09;;;;;;;45.10;34.90;;;;;;;6.40;78.03;100282.97;108645;1275;22703;-77
2022/12/26 00:39:38;;;;;;;49.90;35.60;;;;;;;6.40;78.04;100275.18;108532;1275;21969;-78
2022/12/26 00:42:07;;;;;;;43.90;33.60;;;;;;;6.40;77.95;100272.23;108555;1275;21926;-77
2022/12/26 00:44:36;;;;;;;47.50;35.30;;;;;;;6.40;78.01;100272.05;108707;1275;21929;-76
2022/12/26 00:47:05;;;;;;;45.70;34.00;;;;;;;6.41;78.05;100273.61;108689;1275;21932;-77
2022/12/26 00:49:34;;;;;;;44.50;34.70;;;;;;;6.41;78.04;100264.61;108570;1275;24028;-77
2022/12/26 00:52:23;;;;;;;42.90;32.70;;;;;;;6.40;78.07;100253.92;108615;1275;23578;-79
2022/12/26 00:54:52;;;;;;;42.80;30.90;;;;;;;6.40;78.11;100254.77;108230;1282;23695;-78
2022/12/26 00:57:21;;;;;;;41.50;32.30;;;;;;;6.45;78.18;100245.00;108166;1283;21941;-77
2022/12/26 00:59:50;;;;;;;38.20;29.50;;;;;;;6.46;78.11;100234.25;108089;1282;21951;-77
2022/12/26 01:02:38;;;;;;;43.60;31.90;;;;;;;6.47;78.04;100233.36;108085;1277;21944;-76
2022/12/26 01:05:11;;;;;;;43.30;32.00;;;;;;;6.45;78.05;100245.52;108102;1281;21947;-76
2022/12/26 01:07:40;;;;;;;40.70;30.70;;;;;;;6.44;78.18;100245.00;108050;1282;21989;-76
2022/12/26 01:10:29;;;;;;;39.60;29.50;;;;;;;6.42;78.15;100258.18;108117;1282;21959;-76
2022/12/26 01:12:59;;;;;;;37.10;30.20;;;;;;;6.45;78.18;100256.75;108179;1278;22527;-77
2022/12/26 01:15:29;;;;;;;38.30;30.60;;;;;;;6.47;78.29;100244.09;108482;1277;23640;-78
2022/12/26 01:17:59;;;;;;;42.30;32.00;;;;;;;6.49;78.30;100243.34;108539;1277;21944;-77
2022/12/26 01:20:28;;;;;;;43.20;31.00;;;;;;;6.53;78.28;100247.93;108668;1276;22988;-76
2022/12/26 01:22:57;;;;;;;42.00;29.80;;;;;;;6.54;78.24;100246.69;108501;1278;21969;-77
2022/12/26 01:25:26;;;;;;;38.50;30.10;;;;;;;6.55;78.22;100242.16;108565;1275;23046;-77
2022/12/26 01:27:55;;;;;;;38.00;30.00;;;;;;;6.57;78.25;100237.96;108541;1277;22874;-77
2022/12/26 01:30:24;;;;;;;38.80;31.80;;;;;;;6.59;78.37;100236.20;108527;1278;21931;-78
2022/12/26 01:32:53;;;;;;;42.10;31.40;;;;;;;6.60;78.34;100236.69;108498;1277;22972;-77
2022/12/26 01:35:23;;;;;;;40.80;32.20;;;;;;;6.60;78.33;100227.02;108605;1275;23391;-78
2022/12/26 01:37:52;;;;;;;40.50;29.00;;;;;;;6.60;78.42;100207.64;108630;1275;21934;-77
2022/12/26 01:40:21;;;;;;;36.90;27.80;;;;;;;6.61;78.37;100196.04;108560;1275;23055;-77
2022/12/26 01:42:50;;;;;;;34.20;26.60;;;;;;;6.62;78.32;100194.11;108449;1275;21936;-77
2022/12/26 01:45:31;;;;;;;38.00;27.90;;;;;;;6.62;78.31;100181.30;108583;1275;21930;-77
2022/12/26 01:48:24;;;;;;;31.80;26.20;;;;;;;6.62;78.33;100180.61;108481;1271;22738;-76
2022/12/26 01:51:02;;;;;;;36.20;26.00;;;;;;;6.61;78.41;100167.66;108492;1276;21933;-78
2022/12/26 01:53:40;;;;;;;30.70;24.60;;;;;;;6.62;78.34;100158.84;108654;1275;22395;-77
2022/12/26 01:56:19;;;;;;;35.50;25.10;;;;;;;6.63;78.38;100158.98;108564;1277;23724;-77
2022/12/26 01:59:05;;;;;;;35.70;23.20;;;;;;;6.66;78.42;100152.67;108623;1278;21945;-77
2022/12/26 02:01:37;;;;;;;36.10;26.90;;;;;;;6.67;78.37;100144.17;108455;1278;23090;-77
2022/12/26 02:07:04;;;;;;;40.70;26.40;;;;;;;6.67;78.36;100139.35;108480;1277;21938;-77
2022/12/26 02:09:35;;;;;;;35.60;25.90;;;;;;;6.70;78.41;100139.61;108500;1278;21964;-77
2022/12/26 02:12:31;;;;;;;38.10;27.30;;;;;;;6.73;78.39;100146.29;108452;1275;22976;-77
2022/12/26 02:15:14;;;;;;;34.60;28.50;;;;;;;6.75;78.39;100147.80;108613;1275;21951;-78
2022/12/26 02:17:43;;;;;;;36.00;29.20;;;;;;;6.78;78.35;100143.73;108516;1275;21941;-78
2022/12/26 02:20:39;;;;;;;29.50;25.00;;;;;;;6.83;78.36;100143.97;108520;1275;21934;-77
2022/12/26 02:23:59;;;;;;;35.00;25.40;;;;;;;6.87;78.40;100133.30;108575;1275;21957;-77
2022/12/26 02:27:01;;;;;;;34.90;24.50;;;;;;;6.90;78.35;100120.26;108703;1275;23789;-77
2022/12/26 02:29:49;;;;;;;28.40;22.90;;;;;;;6.90;78.24;100117.85;108629;1275;23075;-77
2022/12/26 02:32:25;;;;;;;29.30;21.90;;;;;;;6.89;78.22;100107.48;108619;1275;21938;-77
2022/12/26 02:35:35;;;;;;;29.60;23.20;;;;;;;6.89;78.17;100108.70;108804;1272;21931;-78
2022/12/26 02:38:14;;;;;;;26.10;20.80;;;;;;;6.89;78.24;100106.45;108593;1273;22083;-78
2022/12/26 02:41:13;;;;;;;28.40;22.00;;;;;;;6.93;78.24;100096.83;108685;1275;23852;-78
2022/12/26 02:47:53;;;;;;;28.90;19.60;;;;;;;6.96;78.20;100092.59;108666;1273;23045;-77
2022/12/26 03:15:21;;;;;;;27.20;17.20;;;;;;;7.17;77.88;100056.02;108698;1275;21940;-75
2022/12/26 03:17:57;;;;;;;22.00;16.50;;;;;;;7.21;77.88;100042.22;108558;1275;21926;-76
2022/12/26 03:20:34;;;;;;;23.80;17.50;;;;;;;7.22;77.84;100057.77;108607;1275;21971;-78
2022/12/26 03:23:10;;;;;;;21.30;17.00;;;;;;;7.26;77.81;100063.91;108767;1275;23583;-77
2022/12/26 03:28:51;;;;;;;19.40;15.40;;;;;;;7.31;77.72;100057.54;108654;1275;22234;-78
2022/12/26 03:31:20;;;;;;;20.50;14.40;;;;;;;7.33;77.65;100057.63;108543;1275;23078;-78
2022/12/26 03:36:50;;;;;;;23.60;16.50;;;;;;;7.39;77.46;100046.57;108670;1275;21936;-78
2022/12/26 04:19:53;;;;;;;20.60;15.70;;;;;;;7.50;77.20;100021.45;108737;1275;21956;-77
2022/12/26 04:46:26;;;;;;;22.80;16.30;;;;;;;7.70;76.95;100008.21;108233;1280;21937;-76
2022/12/26 04:51:44;;;;;;;20.90;16.60;;;;;;;7.77;76.82;99989.60;108357;1280;23043;-77
2022/12/26 04:54:13;;;;;;;19.00;16.70;;;;;;;7.81;76.66;99983.79;108375;1280;21955;-77
2022/12/26 04:56:42;;;;;;;18.70;15.20;;;;;;;7.82;76.58;99993.61;108522;1274;21939;-76
2022/12/26 04:59:14;;;;;;;18.80;14.70;;;;;;;7.84;76.47;99993.91;108532;1275;23041;-77
2022/12/26 05:10:20;;;;;;;;;;;;;;;7.87;76.33;99987.91;108579;1275;22389;-77
2022/12/26 05:12:50;;;;;;;20.50;16.50;;;;;;;7.81;76.50;99984.48;108555;1275;23787;-77
2022/12/26 05:15:20;;;;;;;18.60;16.10;;;;;;;7.82;76.40;99990.15;108536;1269;23093;-77
2022/12/26 05:29:09;;;;;;;20.60;17.10;;;;;;;7.95;76.17;99987.67;108666;1271;21929;-77
2022/12/26 05:31:38;;;;;;;22.90;19.10;;;;;;;7.99;76.19;99989.45;108609;1275;21948;-77
2022/12/26 05:34:12;;;;;;;21.40;17.60;;;;;;;8.04;76.14;99986.34;108575;1275;21934;-78
2022/12/26 05:36:52;;;;;;;19.10;17.10;;;;;;;8.07;75.96;99978.97;108630;1273;22055;-76
2022/12/26 05:39:22;;;;;;;18.50;16.50;;;;;;;8.09;75.96;99974.23;108498;1275;21939;-76
2022/12/26 05:41:52;;;;;;;18.10;15.40;;;;;;;8.12;75.92;99968.90;108537;1275;23724;-77
2022/12/26 05:44:21;;;;;;;16.90;14.70;;;;;;;8.17;76.00;99975.50;108656;1275;21942;-77
2022/12/26 05:46:50;;;;;;;14.50;13.00;;;;;;;8.23;75.92;99976.17;108599;1272;24394;-77
2022/12/26 05:49:19;;;;;;;22.00;18.20;;;;;;;8.28;75.81;99965.08;108530;1275;21936;-76
2022/12/26 05:51:49;;;;;;;14.20;12.80;;;;;;;8.34;75.84;99963.31;108620;1275;21978;-77
2022/12/26 05:54:18;;;;;;;14.50;12.90;;;;;;;8.40;75.85;99960.17;108596;1265;21954;-78
2022/12/26 05:56:48;;;;;;;22.00;17.90;;;;;;;8.43;75.59;99954.69;108736;1274;22736;-78
2022/12/26 05:59:17;;;;;;;19.50;17.20;;;;;;;8.47;75.59;99956.12;108551;1275;21942;-77
2022/12/26 06:01:46;;;;;;;19.60;16.70;;;;;;;8.51;75.59;99954.41;108658;1274;24193;-76
2022/12/26 06:04:16;;;;;;;24.20;17.50;;;;;;;8.56;75.39;99951.30;108494;1274;22015;-78
2022/12/26 06:06:45;;;;;;;24.80;17.40;;;;;;;8.58;75.22;99953.29;108594;1274;24274;-77
2022/12/26 06:09:14;;;;;;;34.60;20.90;;;;;;;8.62;75.20;99958.90;108623;1275;21943;-79
2022/12/26 06:11:43;;;;;;;27.20;18.60;;;;;;;8.66;75.02;99960.48;108351;1278;22266;-79
2022/12/26 06:14:17;;;;;;;29.50;21.30;;;;;;;8.69;74.96;99961.59;108415;1278;23612;-77
2022/12/26 06:16:46;;;;;;;24.70;18.60;;;;;;;8.73;74.94;99961.77;108438;1278;22119;-78
2022/12/26 06:19:15;;;;;;;24.90;18.70;;;;;;;8.77;74.73;99962.50;108444;1278;23620;-76
2022/12/26 06:21:44;;;;;;;22.50;17.90;;;;;;;8.80;74.74;99959.81;108301;1278;23589;-77
2022/12/26 06:24:13;;;;;;;21.60;17.50;;;;;;;8.84;74.67;99957.55;108507;1278;22030;-76
2022/12/26 06:26:42;;;;;;;15.60;13.30;;;;;;;8.88;74.53;99963.33;108439;1280;21934;-78
2022/12/26 06:29:11;;;;;;;16.20;14.50;;;;;;;8.89;74.43;99967.80;108661;1275;22491;-77
2022/12/26 06:31:40;;;;;;;16.00;14.30;;;;;;;8.92;74.35;99969.06;108729;1275;21929;-77
2022/12/26 06:34:09;;;;;;;14.00;12.00;;;;;;;8.95;74.26;99970.52;108622;1258;21956;-77
2022/12/26 06:36:39;;;;;;;18.30;13.50;;;;;;;8.98;74.20;99975.97;108609;1275;23514;-77
2022/12/26 06:39:08;;;;;;;14.80;12.20;;;;;;;9.01;74.21;99987.32;108603;1275;23065;-77
2022/12/26 06:41:37;;;;;;;15.00;12.40;;;;;;;9.04;74.17;99991.70;108516;1275;21935;-77
2022/12/26 06:44:06;;;;;;;19.90;13.60;;;;;;;9.05;73.95;99994.79;108721;1275;22872;-77
2022/12/26 06:46:41;;;;;;;14.20;12.40;;;;;;;9.07;73.92;99997.69;108703;1275;21970;-76
2022/12/26 06:49:12;;;;;;;14.40;12.80;;;;;;;9.08;73.80;100004.06;108689;1274;21537;-77
2022/12/26 06:51:43;;;;;;;15.10;11.80;;;;;;;9.07;73.69;100006.04;108614;1275;23668;-77
2022/12/26 06:54:13;;;;;;;13.30;12.00;;;;;;;9.05;73.61;100008.68;108688;1275;21918;-77
2022/12/26 06:56:42;;;;;;;13.50;12.10;;;;;;;9.05;73.74;100001.06;108908;1275;21976;-76
2022/12/26 06:59:11;;;;;;;14.70;12.10;;;;;;;9.09;73.86;99994.48;108839;1274;23675;-76
2022/12/26 07:01:40;;;;;;;15.00;12.00;;;;;;;9.12;73.71;100004.42;108562;1275;21927;-77
2022/12/26 07:04:11;;;;;;;14.30;12.80;;;;;;;9.15;73.61;100009.52;108586;1275;21962;-78
2022/12/26 07:06:40;;;;;;;13.70;12.20;;;;;;;9.18;73.57;100005.06;108686;1275;22101;-76
2022/12/26 07:09:15;;;;;;;16.70;13.30;;;;;;;9.19;73.33;99997.91;108647;1275;22487;-78
2022/12/26 07:11:48;;;;;;;13.60;12.20;;;;;;;9.18;73.23;99990.84;108649;1274;23103;-77
2022/12/26 07:14:20;;;;;;;14.90;12.70;;;;;;;9.18;73.32;99995.17;108690;1275;24400;-78
2022/12/26 07:16:49;;;;;;;;;;;;;;;9.21;73.33;99991.62;108745;1275;23592;-77
2022/12/26 07:19:19;;;;;;;14.00;12.30;;;;;;;9.15;73.50;99989.38;108736;1273;24285;-78
2022/12/26 07:21:48;;;;;;;15.40;13.70;;;;;;;9.19;73.30;99979.01;108720;1275;21902;-77
2022/12/26 07:24:21;;;;;;;14.40;12.50;;;;;;;9.22;73.29;99975.24;108651;1275;23677;-78
2022/12/26 07:26:50;;;;;;;16.20;14.60;;;;;;;9.23;73.14;99975.90;108567;1275;21978;-76
2022/12/26 07:29:20;;;;;;;14.90;13.30;;;;;;;9.22;73.02;99972.12;108762;1274;21971;-77
2022/12/26 07:31:49;;;;;;;15.20;12.60;;;;;;;9.23;73.15;99980.59;108607;1275;21938;-77
2022/12/26 07:34:19;;;;;;;20.60;16.10;;;;;;;9.25;73.08;99986.06;108739;1275;22114;-78
2022/12/26 07:36:54;;;;;;;17.00;14.10;;;;;;;9.27;73.13;99983.20;108624;1269;21907;-78
2022/12/26 07:39:23;;;;;;;17.50;13.10;;;;;;;9.30;73.09;99987.80;108627;1273;21951;-77
2022/12/26 07:41:58;;;;;;;15.60;13.50;;;;;;;9.34;73.01;99986.39;108655;1275;21941;-77
2022/12/26 07:44:31;;;;;;;15.10;13.10;;;;;;;9.36;72.81;99990.34;108702;1274;23042;-78
2022/12/26 07:47:00;;;;;;;15.00;13.50;;;;;;;9.38;72.81;99992.86;108678;1275;21941;-76
2022/12/26 07:49:29;;;;;;;17.30;13.40;;;;;;;9.39;72.70;99997.31;108623;1275;23112;-79
2022/12/26 07:51:58;;;;;;;16.80;14.00;;;;;;;9.43;72.76;99996.83;108771;1275;21958;-80
2022/12/26 07:54:28;;;;;;;18.20;16.30;;;;;;;9.48;72.65;99997.85;108666;1275;23171;-80
2022/12/26 07:56:57;;;;;;;23.00;19.30;;;;;;;9.51;72.47;99988.70;108910;1272;23672;-79
2022/12/26 07:59:47;;;;;;;18.30;16.10;;;;;;;9.52;72.40;99988.13;108669;1275;21972;-78
2022/12/26 08:02:23;;;;;;;20.50;18.10;;;;;;;9.54;72.23;99986.31;108714;1274;23070;-82
2022/12/26 08:04:52;;;;;;;25.10;19.30;;;;;;;9.56;72.22;99982.08;108669;1274;22576;-79
2022/12/26 08:07:22;;;;;;;20.40;17.90;;;;;;;9.60;72.17;99982.80;108585;1275;21924;-80
2022/12/26 08:09:51;;;;;;;19.90;16.00;;;;;;;9.61;72.05;99988.33;108689;1275;21936;-79
2022/12/26 08:12:23;;;;;;;18.20;14.90;;;;;;;9.61;72.00;99991.09;108608;1275;21939;-80
2022/12/26 08:14:52;;;;;;;18.80;15.90;;;;;;;9.64;72.00;99997.58;108656;1272;23136;-79
2022/12/26 08:17:21;;;;;;;17.00;15.20;;;;;;;9.66;71.90;100012.80;108587;1275;21946;-79
2022/12/26 08:19:50;;;;;;;18.00;15.80;;;;;;;9.68;71.94;100029.89;108588;1275;21941;-79
2022/12/26 08:22:19;;;;;;;18.70;16.00;;;;;;;9.74;71.96;100024.81;108605;1275;21991;-80
2022/12/26 08:24:48;;;;;;;23.00;20.10;;;;;;;9.77;71.69;100022.43;108697;1275;21958;-78
2022/12/26 08:27:18;;;;;;;16.40;14.40;;;;;;;9.80;71.67;100016.23;108668;1275;21934;-79
2022/12/26 08:29:47;;;;;;;16.90;14.40;;;;;;;9.83;71.55;100017.50;108627;1275;22583;-79
2022/12/26 08:32:16;;;;;;;17.80;14.50;;;;;;;9.86;71.48;100015.65;108631;1273;22017;-79
2022/12/26 08:34:46;;;;;;;20.00;15.30;;;;;;;9.89;71.36;100009.63;108622;1275;21941;-79
2022/12/26 08:37:15;;;;;;;20.80;17.80;;;;;;;9.91;71.42;99999.46;108746;1275;21938;-79
2022/12/26 08:39:44;;;;;;;18.80;16.80;;;;;;;9.97;71.32;99994.70;108249;1281;23607;-78
2022/12/26 08:42:13;;;;;;;18.60;15.70;;;;;;;9.99;71.24;100003.47;108355;1280;21928;-81
2022/12/26 08:44:42;;;;;;;21.90;16.70;;;;;;;10.03;71.17;100009.74;108358;1280;21944;-77
2022/12/26 08:47:12;;;;;;;26.80;20.30;;;;;;;10.06;71.09;100017.27;108524;1281;21998;-78
2022/12/26 08:49:41;;;;;;;29.70;23.90;;;;;;;10.10;71.03;100024.76;108389;1281;21959;-82
2022/12/26 08:52:10;;;;;;;20.30;17.30;;;;;;;10.14;70.99;100025.98;108372;1281;21988;-80
2022/12/26 08:54:39;;;;;;;18.20;14.90;;;;;;;10.18;70.81;100032.94;108343;1281;21941;-78
2022/12/26 08:57:08;;;;;;;19.20;13.60;;;;;;;10.21;70.71;100033.73;108615;1275;22742;-79
2022/12/26 08:59:38;;;;;;;15.80;13.60;;;;;;;10.22;70.71;100032.96;108622;1275;21918;-78
2022/12/26 09:02:10;;;;;;;16.50;14.20;;;;;;;10.25;70.59;100022.22;108671;1275;21922;-78
2022/12/26 09:04:39;;;;;;;16.50;13.70;;;;;;;10.28;70.57;100020.39;108654;1274;23213;-79
2022/12/26 09:07:09;;;;;;;17.30;14.10;;;;;;;10.33;70.54;100023.84;108703;1275;21904;-78
2022/12/26 09:09:38;;;;;;;18.10;14.80;;;;;;;10.39;70.55;100029.00;108493;1280;23677;-80
2022/12/26 09:12:07;;;;;;;25.20;21.10;;;;;;;10.46;70.49;100024.36;108365;1280;21956;-78
2022/12/26 09:14:36;;;;;;;22.90;18.60;;;;;;;10.52;70.39;100022.86;108470;1280;22157;-79
2022/12/26 09:17:05;;;;;;;18.30;16.20;;;;;;;10.57;70.18;100019.70;108399;1280;23697;-78
2022/12/26 09:19:35;;;;;;;17.90;14.60;;;;;;;10.63;70.05;100024.12;108259;1281;21915;-78
2022/12/26 09:24:52;;;;;;;18.60;16.30;;;;;;;10.71;69.74;100013.67;108441;1280;23713;-78
2022/12/26 09:27:22;;;;;;;19.40;15.20;;;;;;;10.75;69.59;100011.27;108419;1274;23059;-77
2022/12/26 09:29:51;;;;;;;16.60;14.80;;;;;;;10.79;69.62;100015.46;108834;1275;21930;-79
2022/12/26 09:32:20;;;;;;;14.80;13.10;;;;;;;10.83;69.44;100011.95;108670;1275;21967;-78
2022/12/26 09:34:49;;;;;;;15.80;13.90;;;;;;;10.89;69.30;100012.38;108696;1275;21926;-78
2022/12/26 09:37:18;;;;;;;21.90;18.90;;;;;;;10.96;69.19;100002.86;108564;1275;21934;-78
2022/12/26 09:39:47;;;;;;;25.90;19.20;;;;;;;11.06;69.29;99996.13;108637;1275;21946;-79
2022/12/26 09:42:26;;;;;;;20.10;15.20;;;;;;;11.17;68.89;100001.03;108719;1267;23633;-80
2022/12/26 09:45:15;;;;;;;14.50;13.00;;;;;;;11.28;68.93;100008.55;108707;1261;23045;-79
2022/12/26 09:47:59;;;;;;;14.50;12.90;;;;;;;11.45;68.69;100020.98;108620;1275;21936;-78
2022/12/26 09:50:37;;;;;;;16.50;12.50;;;;;;;11.56;68.28;100034.41;108631;1275;22878;-77
2022/12/26 09:53:36;;;;;;;17.20;14.60;;;;;;;11.63;67.84;100037.59;108725;1275;21925;-79
2022/12/26 09:56:10;;;;;;;16.10;12.80;;;;;;;11.69;67.68;100035.56;108687;1275;21942;-78
2022/12/26 09:59:45;;;;;;;15.40;13.80;;;;;;;11.75;67.44;100044.35;108606;1275;23614;-78
2022/12/26 10:02:21;;;;;;;15.50;12.70;;;;;;;11.79;67.07;100045.00;108315;1282;21942;-78
2022/12/26 10:04:52;;;;;;;17.10;13.80;;;;;;;11.83;67.01;100033.85;108052;1275;21955;-77
2022/12/26 10:07:36;;;;;;;15.10;12.30;;;;;;;11.87;66.82;100023.02;108123;1284;21937;-76
2022/12/26 10:10:13;;;;;;;18.30;15.60;;;;;;;11.87;66.65;100026.66;108304;1272;22060;-79
2022/12/26 10:13:37;;;;;;;16.10;14.40;;;;;;;11.88;66.37;100025.04;108131;1284;24431;-78
2022/12/26 10:17:02;;;;;;;20.70;18.50;;;;;;;11.83;66.20;100015.38;108223;1283;21948;-79
2022/12/26 10:20:06;;;;;;;14.40;12.00;;;;;;;11.83;66.47;100005.42;107119;1294;23547;-78
2022/12/26 10:23:18;;;;;;;22.80;13.60;;;;;;;11.92;66.52;100000.16;107132;1293;23734;-79
2022/12/26 10:26:19;;;;;;;18.50;14.80;;;;;;;11.97;66.20;99999.73;107169;1294;21965;-77
2022/12/26 10:29:30;;;;;;;29.00;23.30;;;;;;;11.98;65.92;99994.29;106976;1295;21955;-77
2022/12/26 10:32:09;;;;;;;18.30;15.10;;;;;;;11.93;65.73;99997.29;106130;1294;1428887;-77
2022/12/26 10:34:49;;;;;;;16.90;14.30;;;;;;;11.88;65.69;100009.03;107196;1295;22094;-78
2022/12/26 10:37:46;;;;;;;19.40;14.10;;;;;;;11.89;65.95;100009.00;107141;1289;21971;-77
2022/12/26 10:40:50;;;;;;;18.60;16.00;;;;;;;12.04;66.46;100002.16;107535;1289;22855;-78
2022/12/26 10:43:19;;;;;;;21.30;17.30;;;;;;;12.28;66.52;100007.58;107543;1289;23030;-78
2022/12/26 10:46:35;;;;;;;26.00;20.10;;;;;;;12.41;65.60;100021.42;107699;1289;22029;-78
2022/12/26 10:49:11;;;;;;;18.10;15.70;;;;;;;12.39;65.12;100025.76;107587;1289;23033;-77
2022/12/26 10:51:40;;;;;;;12.60;11.30;;;;;;;12.40;64.98;100013.80;107652;1289;22018;-77
2022/12/26 10:54:18;;;;;;;14.40;12.10;;;;;;;12.45;64.80;100007.42;107584;1289;23510;-78
2022/12/26 10:56:51;;;;;;;16.20;13.10;;;;;;;12.45;64.50;99995.20;108192;1268;23770;-77
2022/12/26 10:59:23;;;;;;;;;;;;;;;12.46;64.37;99986.80;108749;1275;24296;-78
2022/12/26 11:01:52;;;;;;;;;;;;;;;12.40;64.55;99989.89;108787;1272;21923;-80
2022/12/26 11:04:24;;;;;;;18.80;14.00;;;;;;;12.46;65.06;99986.80;108707;1275;21943;-78
2022/12/26 11:07:17;;;;;;;17.70;13.30;;;;;;;12.84;65.32;99976.77;108705;1275;21929;-78
2022/12/26 11:09:54;;;;;;;17.10;15.00;;;;;;;13.22;64.42;99968.95;108718;1275;21932;-78
2022/12/26 11:12:49;;;;;;;15.80;11.70;;;;;;;13.37;63.44;99961.21;108940;1275;21932;-77
2022/12/26 11:15:48;;;;;;;14.50;11.90;;;;;;;13.49;63.21;99957.41;108648;1275;21989;-77
2022/12/26 11:18:53;;;;;;;14.10;12.70;;;;;;;13.62;62.52;99958.90;108686;1275;21941;-78
2022/12/26 11:21:29;;;;;;;14.10;12.60;;;;;;;13.71;62.34;99960.86;108533;1275;23673;-78
2022/12/26 11:24:07;;;;;;;11.60;10.00;;;;;;;13.89;62.20;99965.98;108679;1275;22596;-78
2022/12/26 11:26:37;;;;;;;16.00;12.80;;;;;;;14.08;61.87;99972.91;108783;1274;21958;-77
2022/12/26 11:29:23;;;;;;;16.50;11.10;;;;;;;14.10;60.56;99965.09;108896;1275;21936;-77
2022/12/26 11:32:01;;;;;;;13.30;8.80;;;;;;;13.83;60.12;99974.20;108656;1275;23773;-77
2022/12/26 11:34:44;;;;;;;9.50;7.90;;;;;;;13.54;60.12;99974.94;108758;1274;23136;-77
2022/12/26 11:37:39;;;;;;;9.20;8.30;;;;;;;13.31;60.48;99973.05;108689;1274;21937;-77
2022/12/26 11:40:27;;;;;;;26.10;21.00;;;;;;;13.17;61.06;99977.79;108909;1275;22132;-78
2022/12/26 11:42:59;;;;;;;12.60;9.20;;;;;;;13.08;61.24;99980.21;108637;1272;23135;-78
2022/12/26 11:45:31;;;;;;;12.70;9.90;;;;;;;13.03;61.43;99976.50;108662;1275;22832;-79
2022/12/26 11:48:22;;;;;;;93.60;83.50;;;;;;;12.98;61.63;99974.30;108623;1275;23979;-78
2022/12/26 11:50:53;;;;;;;20.60;18.50;;;;;;;12.95;61.82;99977.95;108736;1275;23715;-78
2022/12/26 11:53:22;;;;;;;25.50;22.90;;;;;;;12.93;61.91;99978.94;108751;1275;22001;-78
2022/12/26 11:56:04;;;;;;;30.70;27.70;;;;;;;12.91;62.04;99972.06;108625;1273;23721;-78
2022/12/26 11:58:34;;;;;;;;;;;;;;;12.89;62.06;99966.03;108651;1274;23047;-77
2022/12/26 12:01:10;;;;;;;17.70;15.70;;;;;;;12.79;62.33;99956.62;108623;1273;21949;-77
2022/12/26 12:03:45;;;;;;;13.90;11.30;;;;;;;12.81;62.43;99962.48;108633;1274;22170;-77
2022/12/26 12:07:07;;;;;;;14.60;12.60;;;;;;;12.81;62.39;99969.95;108691;1274;21927;-79
2022/12/26 12:09:58;;;;;;;18.20;12.40;;;;;;;12.79;62.49;99970.91;108669;1275;23255;-78
2022/12/26 12:12:55;;;;;;;18.60;11.80;;;;;;;12.82;62.55;99967.98;108716;1273;23286;-78
2022/12/26 12:15:40;;;;;;;23.10;17.70;;;;;;;12.81;62.49;99968.36;108623;1275;23673;-78
2022/12/26 12:18:51;;;;;;;20.30;15.20;;;;;;;12.81;62.55;99971.53;108797;1266;23053;-78
2022/12/26 12:21:42;;;;;;;19.00;16.60;;;;;;;12.80;62.73;99975.23;108809;1263;22988;-78
2022/12/26 12:24:55;;;;;;;17.60;14.40;;;;;;;12.79;62.71;99975.69;108615;1269;21939;-78
2022/12/26 12:27:54;;;;;;;17.10;13.70;;;;;;;12.75;62.79;99966.64;108688;1269;21935;-77
2022/12/26 12:31:09;;;;;;;16.20;12.50;;;;;;;12.73;62.76;99959.75;108788;1275;21968;-81
2022/12/26 12:33:55;;;;;;;14.70;12.30;;;;;;;12.70;62.84;99953.58;108714;1266;21931;-78
2022/12/26 12:36:51;;;;;;;17.50;12.50;;;;;;;12.70;62.81;99948.02;108819;1262;21939;-79
2022/12/26 12:39:45;;;;;;;17.90;13.10;;;;;;;12.71;62.84;99948.66;108923;1274;23754;-82
2022/12/26 12:42:38;;;;;;;23.20;19.30;;;;;;;12.71;62.88;99940.28;108722;1265;22967;-80
2022/12/26 12:45:27;;;;;;;40.10;33.40;;;;;;;12.72;62.92;99951.91;108974;1275;21990;-81
2022/12/26 12:48:21;;;;;;;51.00;43.70;;;;;;;12.73;62.99;99958.16;108649;1275;23715;-82
2022/12/26 12:51:02;;;;;;;19.50;17.00;;;;;;;12.73;62.91;99966.03;108753;1275;21934;-80
2022/12/26 12:53:59;;;;;;;32.50;29.00;;;;;;;12.72;62.88;99958.73;108775;1263;24556;-78
2022/12/26 12:56:46;;;;;;;31.10;28.00;;;;;;;12.72;62.78;99957.52;108717;1275;21936;-77
2022/12/26 12:59:37;;;;;;;17.50;15.80;;;;;;;12.72;62.83;99958.93;108912;1272;21931;-76
2022/12/26 13:02:27;;;;;;;21.10;18.70;;;;;;;12.72;62.89;99950.71;108730;1275;22013;-78
2022/12/26 13:05:10;;;;;;;16.40;13.60;;;;;;;12.73;62.84;99942.30;108839;1267;23223;-80
2022/12/26 13:07:45;;;;;;;16.60;13.10;;;;;;;12.73;62.77;99936.85;108749;1270;24489;-82
2022/12/26 13:10:26;;;;;;;16.60;14.90;;;;;;;12.72;62.79;99936.91;108737;1264;21948;-81
2022/12/26 13:12:57;;;;;;;23.60;16.10;;;;;;;12.72;62.86;99939.53;108773;1272;22872;-82
2022/12/26 13:15:43;;;;;;;22.90;18.70;;;;;;;12.72;62.92;99942.48;108833;1270;21837;-82
2022/12/26 13:18:22;;;;;;;26.20;20.90;;;;;;;12.70;63.10;99945.40;109060;1269;21929;-77
2022/12/26 13:21:04;;;;;;;22.80;20.30;;;;;;;12.73;63.42;99946.99;109264;1269;21937;-77
2022/12/26 13:26:52;;;;;;;25.00;20.00;;;;;;;12.80;63.57;99946.95;108797;1275;23198;-77
2022/12/26 13:29:45;;;;;;;24.30;21.70;;;;;;;12.81;63.35;99944.80;108567;1278;21938;-80
2022/12/26 13:32:30;;;;;;;21.60;18.40;;;;;;;12.78;63.29;99948.98;108724;1278;22267;-82
2022/12/26 13:35:03;;;;;;;23.40;16.90;;;;;;;12.76;63.36;99953.50;108534;1278;23337;-78
2022/12/26 13:37:38;;;;;;;21.90;19.30;;;;;;;12.73;63.37;99963.27;108587;1278;21975;-79
2022/12/26 13:40:10;;;;;;;24.70;17.60;;;;;;;12.71;63.52;99961.77;108738;1278;23689;-80
2022/12/26 13:45:41;;;;;;;20.40;14.90;;;;;;;12.65;63.63;99964.52;108661;1275;23592;-82
2022/12/26 13:48:17;;;;;;;21.60;17.10;;;;;;;12.59;63.66;99959.59;108662;1275;23576;-82
2022/12/26 13:50:51;;;;;;;22.00;17.20;;;;;;;12.54;63.77;99959.86;108924;1274;21945;-78
2022/12/26 13:53:24;;;;;;;20.90;17.10;;;;;;;12.51;63.89;99960.89;108843;1273;21943;-82
2022/12/26 13:56:26;;;;;;;25.10;20.60;;;;;;;12.50;64.02;99964.44;108920;1276;23564;-80
2022/12/26 13:59:16;;;;;;;21.40;18.20;;;;;;;12.45;64.13;99971.64;108558;1283;21943;-80
2022/12/26 14:02:13;;;;;;;25.80;20.10;;;;;;;12.42;64.37;99974.23;108250;1283;23598;-79
2022/12/26 14:05:49;;;;;;;25.20;20.60;;;;;;;12.42;64.53;99972.52;108365;1282;22004;-79
2022/12/26 14:08:45;;;;;;;27.50;20.90;;;;;;;12.39;64.56;99975.45;107754;1289;24291;-78
2022/12/26 14:11:45;;;;;;;28.30;22.10;;;;;;;12.40;64.66;99979.27;107852;1286;21989;-79
2022/12/26 14:14:51;;;;;;;27.90;23.10;;;;;;;12.39;64.75;99985.41;107850;1286;24376;-79